Ansted, West Virginia
Current Conditions -  °F | °C
As of 10:51 PM on Friday 19 Dec 2014 (Local Time) from KBKW Reporting Station
Overcast Overcast  
Wind Chill: 24°   Ceiling: 800
Heat Index: 24°   Visibility: 10mi
Dew Point: 19°   Wind: 0mph
Humidity: 81%   Direction: NA
Pressure: 30.17"   Gusts: NA
Location:  38.14°N, 81.1°W
Report Text: KBKW 200351Z AUTO 00000KT 10SM OVC008 M04/M07 A3017 RMK AO2 SLP252 T10441072
Loading
Personal Weather Stations






























Interactive Weather Map New forecast layout! Learn more

10-Day Weather Forecast

Advertisements
Track Severe Weather on mobile